This is the latest recevied weather packets stored in our database for station/object KE8WMS. If no packets are shown the sender has not sent any weather packets the latest 10 day(s).
| Time | Temp. | Humidity | Pressure | Rain* | Wind** | Luminosity | Snow |
|---|---|---|---|---|---|---|---|
| 1787586200 | 19.44° C | 75% | 1012.3 hPa | 0 mm | - | 189 W/m² | - |
| 1787585897 | 18.89° C | 78% | 1012.3 hPa | 0 mm | - | 265 W/m² | - |
| 1787585596 | 18.33° C | 79% | 1012.1 hPa | 0 mm | - | 191 W/m² | - |
| 1787585292 | 18.89° C | 79% | 1012.3 hPa | 0 mm | - | 143 W/m² | - |
| 1787584991 | 18.89° C | 78% | 1012.1 hPa | 0 mm | - | 733 W/m² | - |
| 1787584687 | 20° C | 75% | 1012.1 hPa | 0 mm | - | 121 W/m² | - |
| 1787584384 | 19.44° C | 77% | 1012 hPa | 0 mm | - | 202 W/m² | - |
| 1787584084 | 18.33° C | 80% | 1012.1 hPa | 0 mm | - | 219 W/m² | - |
| 1787583779 | 18.33° C | 79% | 1012.1 hPa | 0 mm | - | 270 W/m² | - |
| 1787583479 | 18.33° C | 80% | 1012 hPa | 0 mm | - | 197 W/m² | - |
| 1787583178 | 18.33° C | 79% | 1011.9 hPa | 0 mm | - | 203 W/m² | - |
| 1787582873 | 18.33° C | 79% | 1011.8 hPa | 0 mm | - | 170 W/m² | - |
| 1787582568 | 18.89° C | 78% | 1011.8 hPa | 0 mm | - | 133 W/m² | - |
| 1787582264 | 17.78° C | 79% | 1011.8 hPa | 0 mm | - | 690 W/m² | - |
| 1787581963 | 17.78° C | 81% | 1012 hPa | 0 mm | - | 100 W/m² | - |
| 1787581659 | 17.78° C | 80% | 1011.7 hPa | 0 mm | - | 109 W/m² | - |
| 1787581354 | 17.78° C | 80% | 1011.7 hPa | 0 mm | - | 268 W/m² | - |
| 1787581054 | 17.78° C | 81% | 1011.7 hPa | 0 mm | - | 155 W/m² | - |
| 1787580750 | 17.78° C | 79% | 1011.7 hPa | 0 mm | - | 190 W/m² | - |
| 1787580445 | 18.33° C | 78% | 1011.8 hPa | 0 mm | - | 159 W/m² | - |
| 1787580140 | 17.78° C | 79% | 1011.6 hPa | 0 mm | - | 226 W/m² | - |
| 1787579840 | 17.22° C | 80% | 1011.5 hPa | 0 mm | - | 399 W/m² | - |
| 1787579535 | 17.22° C | 80% | 1011.5 hPa | 0 mm | - | 116 W/m² | - |
| 1787579230 | 17.22° C | 80% | 1011.6 hPa | 0 mm | - | 299 W/m² | - |
| 1787578925 | 17.22° C | 80% | 1011.4 hPa | 0 mm | - | 140 W/m² | - |
* Rain latest hour (hover to see other rain measurements)
** Current wind speed in m/s (hover to see current wind gust speed)